Time;durP1;ratioP1;P1;durP2;ratioP2;P2;SDS_P1;SDS_P2;PMS_P1;PMS_P2;Temp;Humidity;BMP_temperature;BMP_pressure;BME280_temperature;BME280_humidity;BME280_pressure;Samples;Min_cycle;Max_cycle;Signal;HPM_P1;HPM_P2
2020/12/08 00:01:55;;;;;;;2.77;1.90;;;10.80;99.90;;;;;;5090354;28;20862;-79
2020/12/08 00:04:25;;;;;;;3.27;1.80;;;10.80;99.90;;;;;;5090630;28;20321;-80
2020/12/08 00:06:54;;;;;;;4.60;1.93;;;10.80;99.90;;;;;;5092045;28;20686;-80
2020/12/08 00:09:25;;;;;;;3.10;2.20;;;10.80;99.90;;;;;;5092648;28;20218;-78
2020/12/08 00:11:54;;;;;;;3.53;2.10;;;10.70;99.90;;;;;;5091048;28;20223;-80
2020/12/08 00:14:24;;;;;;;4.40;2.10;;;10.60;99.90;;;;;;5086345;28;20302;-79
2020/12/08 00:16:53;;;;;;;2.97;1.80;;;10.60;99.90;;;;;;5086120;28;20667;-80
2020/12/08 00:19:26;;;;;;;2.43;1.67;;;10.50;99.90;;;;;;5093011;28;20592;-81
2020/12/08 00:21:55;;;;;;;3.70;2.13;;;10.50;99.90;;;;;;5093309;28;20306;-80
2020/12/08 00:24:26;;;;;;;5.03;2.10;;;10.40;99.90;;;;;;5096699;28;20264;-81
2020/12/08 00:26:56;;;;;;;3.17;2.00;;;10.40;99.90;;;;;;5076320;28;20330;-80
2020/12/08 00:29:26;;;;;;;3.47;2.33;;;10.40;99.90;;;;;;5078350;28;20211;-80
2020/12/08 00:31:55;;;;;;;3.77;1.90;;;10.30;99.90;;;;;;5102048;28;20280;-79
2020/12/08 00:34:25;;;;;;;2.73;2.03;;;10.30;99.90;;;;;;5103651;28;20314;-79
2020/12/08 00:36:55;;;;;;;2.43;2.10;;;10.20;99.90;;;;;;5096779;28;20655;-80
2020/12/08 00:39:24;;;;;;;4.07;2.03;;;10.20;99.90;;;;;;5100733;28;20206;-80
2020/12/08 00:41:55;;;;;;;4.87;1.83;;;10.20;99.90;;;;;;5092488;28;20623;-79
2020/12/08 00:44:24;;;;;;;2.83;1.90;;;10.20;99.90;;;;;;5092247;28;20217;-79
2020/12/08 00:46:54;;;;;;;3.27;2.13;;;10.20;99.90;;;;;;5084065;28;20242;-80
2020/12/08 00:49:24;;;;;;;5.77;2.10;;;10.20;99.90;;;;;;5089501;28;20203;-80
2020/12/08 00:51:57;;;;;;;4.50;1.90;;;10.30;99.90;;;;;;5089813;28;20737;-80
2020/12/08 00:54:27;;;;;;;4.90;2.03;;;10.30;99.90;;;;;;5090121;28;20205;-79
2020/12/08 00:56:58;;;;;;;2.97;1.73;;;10.40;99.90;;;;;;5088107;28;20231;-79
2020/12/08 00:59:28;;;;;;;1.90;1.80;;;10.50;99.90;;;;;;5089247;28;20210;-80
2020/12/08 01:02:00;;;;;;;3.90;2.03;;;10.50;99.90;;;;;;5088188;28;20209;-80
2020/12/08 01:04:30;;;;;;;6.97;2.27;;;10.60;99.90;;;;;;5075051;28;20202;-80
2020/12/08 01:07:00;;;;;;;3.70;1.80;;;10.60;99.90;;;;;;5100203;28;20299;-80
2020/12/08 01:09:30;;;;;;;2.67;1.67;;;10.70;99.90;;;;;;5095288;28;20226;-80
2020/12/08 01:12:01;;;;;;;3.03;1.73;;;10.70;99.90;;;;;;5089729;28;20238;-79
2020/12/08 01:14:31;;;;;;;3.47;1.90;;;10.60;99.90;;;;;;5089855;28;20214;-79
2020/12/08 01:17:01;;;;;;;3.47;2.10;;;10.60;99.90;;;;;;5078032;28;20203;-79
2020/12/08 01:19:30;;;;;;;4.23;2.23;;;10.60;99.90;;;;;;5085600;28;20290;-80
2020/12/08 01:22:00;;;;;;;3.53;2.37;;;10.70;99.90;;;;;;5089485;28;20203;-79
2020/12/08 01:24:30;;;;;;;4.10;2.70;;;10.60;99.90;;;;;;5089242;28;20203;-80
2020/12/08 01:27:07;;;;;;;3.93;2.60;;;10.60;99.90;;;;;;5090049;28;20242;-80
2020/12/08 01:29:37;;;;;;;4.70;2.90;;;10.60;99.90;;;;;;5081805;28;20242;-81
2020/12/08 01:32:07;;;;;;;4.27;2.50;;;10.60;99.90;;;;;;5093095;28;20264;-80
2020/12/08 01:34:37;;;;;;;7.83;3.27;;;10.60;99.90;;;;;;5090560;28;20262;-80
2020/12/08 01:37:07;;;;;;;4.40;3.00;;;10.60;99.90;;;;;;5088069;28;20239;-80
2020/12/08 01:39:36;;;;;;;5.37;3.27;;;10.60;99.90;;;;;;5090279;28;20205;-80
2020/12/08 01:42:07;;;;;;;4.73;2.73;;;10.60;99.90;;;;;;5089073;28;20223;-80
2020/12/08 01:44:37;;;;;;;3.73;2.90;;;10.60;99.90;;;;;;5090293;28;20235;-80
2020/12/08 01:47:07;;;;;;;6.60;3.37;;;10.60;99.90;;;;;;5089448;28;20209;-80
2020/12/08 01:49:36;;;;;;;5.13;3.20;;;10.50;99.90;;;;;;5088945;28;20210;-80
2020/12/08 01:52:06;;;;;;;3.90;2.57;;;10.60;99.90;;;;;;5088168;28;20261;-80
2020/12/08 01:54:36;;;;;;;4.57;3.00;;;10.60;99.90;;;;;;5089638;28;20301;-80
2020/12/08 01:57:07;;;;;;;4.00;2.70;;;10.60;99.90;;;;;;5083196;28;20211;-80
2020/12/08 01:59:37;;;;;;;5.97;3.23;;;10.60;99.90;;;;;;5083042;28;20234;-80
2020/12/08 02:02:06;;;;;;;7.57;2.93;;;10.60;99.90;;;;;;5088791;28;20604;-80
2020/12/08 02:04:38;;;;;;;3.70;3.00;;;10.60;99.90;;;;;;5089856;28;20238;-80
2020/12/08 02:07:08;;;;;;;5.77;2.90;;;10.60;99.90;;;;;;5088860;28;20203;-80
2020/12/08 02:09:38;;;;;;;3.87;2.63;;;10.60;99.90;;;;;;5089371;28;20211;-80
2020/12/08 02:12:09;;;;;;;4.80;2.53;;;10.60;99.90;;;;;;5088822;28;20254;-81
2020/12/08 02:14:38;;;;;;;4.43;2.70;;;10.60;99.90;;;;;;5089637;28;20210;-80
2020/12/08 02:17:08;;;;;;;5.03;2.50;;;10.60;99.90;;;;;;5088963;28;20613;-81
2020/12/08 02:19:37;;;;;;;5.93;2.67;;;10.60;99.90;;;;;;5088873;28;20699;-80
2020/12/08 02:22:08;;;;;;;3.30;2.30;;;10.60;99.90;;;;;;5088245;28;20252;-80
2020/12/08 02:24:37;;;;;;;3.93;2.80;;;10.60;99.90;;;;;;5086423;28;20578;-79
2020/12/08 02:27:07;;;;;;;3.40;2.37;;;10.70;99.90;;;;;;5080060;28;20242;-81
2020/12/08 02:29:36;;;;;;;3.03;2.07;;;10.70;99.90;;;;;;5085359;28;20247;-81
2020/12/08 02:32:06;;;;;;;4.33;2.33;;;10.70;99.90;;;;;;5080202;28;20222;-80
2020/12/08 02:34:36;;;;;;;2.23;1.83;;;10.80;99.90;;;;;;5086522;28;20643;-80
2020/12/08 02:37:10;;;;;;;5.67;2.33;;;10.80;99.90;;;;;;5091277;28;20207;-80
2020/12/08 02:39:40;;;;;;;4.70;2.23;;;10.80;99.90;;;;;;5089229;28;20199;-79
2020/12/08 02:42:09;;;;;;;4.03;2.50;;;10.70;99.90;;;;;;5094113;28;20228;-81
2020/12/08 02:44:39;;;;;;;4.90;2.63;;;10.70;99.90;;;;;;5088732;28;20643;-80
2020/12/08 02:47:08;;;;;;;4.77;2.20;;;10.70;99.90;;;;;;5089212;28;20301;-80
2020/12/08 02:49:38;;;;;;;3.57;2.47;;;10.80;99.90;;;;;;5088357;28;20611;-80
2020/12/08 02:52:09;;;;;;;4.43;2.63;;;10.80;99.90;;;;;;5086102;28;20255;-83
2020/12/08 02:54:47;;;;;;;6.17;2.40;;;10.70;99.90;;;;;;5088569;28;20268;-87
2020/12/08 02:57:17;;;;;;;4.93;2.53;;;10.70;99.90;;;;;;5085509;28;20256;-82
2020/12/08 02:59:47;;;;;;;4.23;2.70;;;10.70;99.90;;;;;;5088504;28;20190;-83
2020/12/08 03:02:18;;;;;;;8.13;2.83;;;10.70;99.90;;;;;;5087183;28;20213;-83
2020/12/08 03:04:49;;;;;;;4.63;2.67;;;10.80;99.90;;;;;;5088931;28;20298;-84
2020/12/08 03:07:21;;;;;;;4.73;2.63;;;10.80;99.90;;;;;;5091279;28;20215;-85
2020/12/08 03:09:55;;;;;;;3.73;2.50;;;10.80;99.90;;;;;;5087642;28;20214;-84
2020/12/08 03:12:27;;;;;;;2.97;2.40;;;10.80;99.90;;;;;;5066120;28;20691;-83
2020/12/08 03:14:58;;;;;;;3.43;2.20;;;10.80;99.90;;;;;;5086881;28;20214;-84
2020/12/08 03:17:32;;;;;;;5.80;3.00;;;10.80;99.90;;;;;;5097297;28;20245;-85
2020/12/08 03:20:14;;;;;;;3.03;2.47;;;10.80;99.90;;;;;;5099760;28;20500;-85
2020/12/08 03:22:56;;;;;;;4.53;2.40;;;10.80;99.90;;;;;;4734588;28;10000345;-84
2020/12/08 03:25:28;;;;;;;4.17;2.33;;;10.90;99.90;;;;;;5077480;28;21070;-85
2020/12/08 03:27:57;;;;;;;3.67;2.27;;;10.90;99.90;;;;;;5086641;28;20187;-84
2020/12/08 03:30:27;;;;;;;3.07;2.43;;;10.90;99.90;;;;;;5087403;28;20245;-84
2020/12/08 03:32:57;;;;;;;3.23;2.27;;;10.90;99.90;;;;;;5088550;28;20531;-84
2020/12/08 03:35:27;;;;;;;2.70;2.17;;;10.90;99.90;;;;;;5091007;28;20230;-84
2020/12/08 03:37:58;;;;;;;2.33;1.90;;;11.00;99.90;;;;;;5094013;28;20306;-83
2020/12/08 03:40:29;;;;;;;3.93;2.07;;;11.00;99.90;;;;;;5093437;28;20323;-83
2020/12/08 03:43:00;;;;;;;4.97;2.10;;;11.00;99.90;;;;;;5091699;28;20659;-83
2020/12/08 03:45:52;;;;;;;4.30;2.20;;;11.10;99.90;;;;;;5091116;28;20199;-84
2020/12/08 03:48:23;;;;;;;2.47;2.03;;;11.20;99.90;;;;;;5083966;28;20207;-85
2020/12/08 03:50:53;;;;;;;2.67;2.10;;;11.30;99.90;;;;;;5091617;28;20559;-83
2020/12/08 03:53:25;;;;;;;2.50;1.83;;;11.30;99.90;;;;;;5080899;28;20824;-83
2020/12/08 03:55:57;;;;;;;3.50;2.27;;;11.30;99.90;;;;;;5091879;28;20233;-84
2020/12/08 03:58:26;;;;;;;5.43;2.10;;;11.30;99.90;;;;;;5093311;28;20555;-84
2020/12/08 04:01:16;;;;;;;4.13;2.17;;;11.30;99.90;;;;;;5092321;28;20226;-84
2020/12/08 04:03:47;;;;;;;2.47;2.00;;;11.30;99.90;;;;;;5094207;28;20222;-84
2020/12/08 04:06:18;;;;;;;4.90;2.00;;;11.30;99.90;;;;;;5095876;28;20566;-84
2020/12/08 04:08:49;;;;;;;1.93;1.67;;;11.30;99.90;;;;;;5093760;28;20211;-83
2020/12/08 04:11:19;;;;;;;2.97;2.40;;;11.30;99.90;;;;;;5092756;28;20231;-84
2020/12/08 04:13:51;;;;;;;3.57;2.60;;;11.30;99.90;;;;;;5092780;28;20226;-86
2020/12/08 04:16:21;;;;;;;3.33;2.20;;;11.30;99.90;;;;;;5089323;28;20199;-83
2020/12/08 04:18:51;;;;;;;3.80;1.80;;;11.30;99.90;;;;;;5090326;28;20280;-84
2020/12/08 04:21:23;;;;;;;2.40;1.93;;;11.30;99.90;;;;;;5092923;28;20210;-84
2020/12/08 04:23:59;;;;;;;4.30;2.20;;;11.40;99.90;;;;;;5089116;28;20237;-85
2020/12/08 04:26:29;;;;;;;2.40;1.83;;;11.30;99.90;;;;;;5088556;28;20327;-84
2020/12/08 04:29:01;;;;;;;4.43;2.23;;;11.30;99.90;;;;;;5084814;28;20279;-84
2020/12/08 04:31:31;;;;;;;3.83;2.63;;;11.20;99.90;;;;;;5088375;28;20265;-84
2020/12/08 04:34:18;;;;;;;4.43;2.30;;;11.20;99.90;;;;;;5093628;28;20229;-82
2020/12/08 04:36:52;;;;;;;3.90;2.17;;;11.10;99.90;;;;;;5089136;28;20207;-84
2020/12/08 04:39:37;;;;;;;3.23;2.33;;;11.10;99.90;;;;;;5091253;28;20280;-82
2020/12/08 04:42:08;;;;;;;3.53;2.30;;;11.00;99.90;;;;;;5091038;28;20191;-83
2020/12/08 04:44:41;;;;;;;3.57;2.33;;;11.00;99.90;;;;;;5086631;28;20210;-84
2020/12/08 04:47:22;;;;;;;2.80;2.07;;;11.00;99.90;;;;;;5089901;28;20731;-84
2020/12/08 04:49:56;;;;;;;5.43;2.40;;;11.00;99.90;;;;;;5091289;28;20301;-85
2020/12/08 04:52:30;;;;;;;6.17;2.50;;;10.90;99.90;;;;;;5091598;28;20238;-84
2020/12/08 04:55:03;;;;;;;6.53;2.37;;;10.90;99.90;;;;;;5092597;28;20217;-83
2020/12/08 04:57:34;;;;;;;3.87;2.20;;;10.90;99.90;;;;;;5071643;28;20262;-84
2020/12/08 05:00:09;;;;;;;3.50;2.27;;;10.90;99.90;;;;;;5081377;28;20206;-85
2020/12/08 05:02:58;;;;;;;4.43;2.50;;;10.80;99.90;;;;;;5077227;28;20702;-82
2020/12/08 05:05:28;;;;;;;2.87;2.30;;;10.80;99.90;;;;;;5087588;28;20253;-82
2020/12/08 05:08:08;;;;;;;4.53;2.70;;;10.80;99.90;;;;;;5092187;28;20697;-81
2020/12/08 05:10:41;;;;;;;2.87;1.80;;;10.80;99.90;;;;;;5084434;28;20285;-85
2020/12/08 05:13:16;;;;;;;2.57;2.10;;;10.80;99.90;;;;;;5092788;28;20339;-83
2020/12/08 05:15:59;;;;;;;3.57;2.10;;;10.80;99.90;;;;;;5084925;28;20191;-85
2020/12/08 05:18:31;;;;;;;6.03;2.03;;;10.80;99.90;;;;;;5089241;28;20264;-85
2020/12/08 05:21:09;;;;;;;4.50;2.57;;;10.80;99.90;;;;;;5093347;28;20223;-83
2020/12/08 05:23:43;;;;;;;4.33;2.10;;;10.80;99.90;;;;;;5086750;28;20202;-85
2020/12/08 05:26:15;;;;;;;4.43;2.20;;;10.80;99.90;;;;;;5093978;28;20607;-85
2020/12/08 05:28:45;;;;;;;3.23;2.40;;;10.80;99.90;;;;;;5094924;28;20232;-86
2020/12/08 05:31:26;;;;;;;3.10;2.10;;;10.80;99.90;;;;;;5092662;28;20313;-86
2020/12/08 05:34:00;;;;;;;4.63;2.43;;;10.80;99.90;;;;;;5099699;28;20198;-86
2020/12/08 05:36:31;;;;;;;4.60;2.20;;;10.90;99.90;;;;;;5098161;28;20234;-86
2020/12/08 05:39:02;;;;;;;2.80;2.50;;;10.80;99.90;;;;;;5098201;28;20203;-85
2020/12/08 05:41:33;;;;;;;4.73;2.50;;;10.80;99.90;;;;;;5100479;28;20277;-85
2020/12/08 05:44:07;;;;;;;3.20;2.40;;;10.80;99.90;;;;;;5110204;28;20195;-84
2020/12/08 05:46:44;;;;;;;4.27;2.53;;;10.80;99.90;;;;;;5109375;28;20197;-84
2020/12/08 05:49:16;;;;;;;3.57;2.47;;;10.80;99.90;;;;;;5110612;28;20206;-84
2020/12/08 05:51:47;;;;;;;3.93;2.20;;;10.80;99.90;;;;;;5109283;28;20199;-84
2020/12/08 05:54:19;;;;;;;4.43;2.57;;;10.70;99.90;;;;;;5109911;28;20256;-84
2020/12/08 05:56:51;;;;;;;5.27;2.13;;;10.70;99.90;;;;;;5107345;28;20282;-84
2020/12/08 05:59:27;;;;;;;3.37;2.60;;;10.70;99.90;;;;;;5109664;28;20605;-85
2020/12/08 06:01:57;;;;;;;4.13;2.53;;;10.70;99.90;;;;;;5109808;28;20206;-85
2020/12/08 06:04:27;;;;;;;4.23;2.20;;;10.70;99.90;;;;;;5111058;28;20232;-85
2020/12/08 06:06:57;;;;;;;4.20;2.70;;;10.80;99.90;;;;;;5111464;28;20453;-83
2020/12/08 06:09:29;;;;;;;3.63;2.60;;;10.80;99.90;;;;;;5111247;28;20237;-84
2020/12/08 06:12:02;;;;;;;9.67;2.30;;;10.80;99.90;;;;;;5114927;28;20207;-84
2020/12/08 06:14:37;;;;;;;3.63;2.07;;;10.80;99.90;;;;;;5115117;28;20207;-85
2020/12/08 06:17:08;;;;;;;4.83;2.40;;;10.80;99.90;;;;;;5114385;28;20224;-85
2020/12/08 06:19:38;;;;;;;3.37;2.03;;;10.90;99.90;;;;;;5108338;28;20202;-84
2020/12/08 06:22:17;;;;;;;4.77;2.37;;;10.90;99.90;;;;;;5100349;28;20218;-85
2020/12/08 06:24:54;;;;;;;2.93;1.87;;;10.80;99.90;;;;;;5101609;28;20202;-85
2020/12/08 06:27:26;;;;;;;4.73;2.47;;;10.90;99.90;;;;;;5097204;28;20852;-84
2020/12/08 06:29:58;;;;;;;4.57;2.20;;;11.00;99.90;;;;;;5096074;28;20323;-84
2020/12/08 06:32:29;;;;;;;3.20;1.80;;;10.90;99.90;;;;;;5095903;28;20574;-84
2020/12/08 06:35:08;;;;;;;3.87;2.20;;;10.90;99.90;;;;;;5094100;28;20266;-84
2020/12/08 06:37:45;;;;;;;4.90;2.13;;;11.00;99.90;;;;;;5094746;28;20714;-84
2020/12/08 06:40:17;;;;;;;3.30;2.17;;;11.00;99.90;;;;;;5092642;28;20210;-85
2020/12/08 06:42:49;;;;;;;3.30;2.03;;;11.00;99.90;;;;;;5092434;28;20723;-85
2020/12/08 06:45:21;;;;;;;4.07;2.10;;;11.00;99.90;;;;;;5092627;28;20614;-85
2020/12/08 06:47:52;;;;;;;2.60;2.00;;;11.00;99.90;;;;;;5090073;28;20260;-84
2020/12/08 06:50:25;;;;;;;3.20;1.93;;;11.00;99.90;;;;;;5089548;28;20207;-86
2020/12/08 06:52:57;;;;;;;2.77;2.03;;;11.00;99.90;;;;;;5071921;28;20678;-85
2020/12/08 06:55:29;;;;;;;2.40;1.63;;;11.10;99.90;;;;;;5089748;28;20203;-85
2020/12/08 06:58:06;;;;;;;3.10;1.90;;;11.10;99.90;;;;;;5092234;28;20218;-85
2020/12/08 07:00:36;;;;;;;3.60;2.00;;;11.20;99.90;;;;;;5088311;28;20211;-84
2020/12/08 07:03:06;;;;;;;3.87;2.17;;;11.20;99.90;;;;;;5074089;28;20207;-85
2020/12/08 07:05:37;;;;;;;3.50;1.77;;;11.10;99.90;;;;;;5079430;28;20275;-84
2020/12/08 07:08:09;;;;;;;3.50;2.23;;;11.10;99.90;;;;;;5096960;28;20217;-84
2020/12/08 07:10:41;;;;;;;3.70;1.93;;;11.10;99.90;;;;;;5093536;28;20217;-83
2020/12/08 07:13:17;;;;;;;2.90;1.87;;;11.00;99.90;;;;;;5092761;28;20600;-84
2020/12/08 07:15:51;;;;;;;2.20;1.80;;;11.00;99.90;;;;;;5095254;28;20293;-85
2020/12/08 07:18:21;;;;;;;3.20;1.90;;;10.90;99.90;;;;;;5082585;28;20207;-85
2020/12/08 07:20:55;;;;;;;2.77;1.87;;;10.90;99.90;;;;;;5095014;28;20230;-85
2020/12/08 07:23:27;;;;;;;4.43;2.00;;;10.80;99.90;;;;;;5095105;28;20211;-85
2020/12/08 07:25:58;;;;;;;2.60;1.60;;;10.80;99.90;;;;;;5095467;28;20207;-84
2020/12/08 07:28:29;;;;;;;3.20;2.30;;;10.90;99.90;;;;;;5097489;28;20211;-84
2020/12/08 07:30:59;;;;;;;5.27;1.70;;;10.90;99.90;;;;;;5095181;28;20218;-83
2020/12/08 07:33:32;;;;;;;3.27;2.10;;;10.90;99.90;;;;;;5093973;28;20317;-85
2020/12/08 07:36:02;;;;;;;3.00;1.87;;;10.90;99.90;;;;;;5089548;28;20199;-84
2020/12/08 07:38:41;;;;;;;2.80;1.60;;;10.80;99.90;;;;;;5095159;28;20227;-85
2020/12/08 07:41:19;;;;;;;5.80;1.80;;;10.70;99.90;;;;;;5095752;28;20211;-85
2020/12/08 07:43:52;;;;;;;2.80;2.00;;;10.70;99.90;;;;;;5097778;28;20276;-84
2020/12/08 07:46:26;;;;;;;3.50;2.10;;;10.70;99.90;;;;;;5094775;28;20222;-84
2020/12/08 07:49:07;;;;;;;2.63;1.97;;;10.70;99.90;;;;;;5093457;28;20210;-83
2020/12/08 07:51:39;;;;;;;3.33;1.80;;;10.70;99.90;;;;;;5094363;28;20214;-85
2020/12/08 07:54:10;;;;;;;2.67;1.73;;;10.70;99.90;;;;;;5093799;28;20256;-85
2020/12/08 07:56:40;;;;;;;2.50;1.70;;;10.60;99.90;;;;;;5093638;28;20241;-85
2020/12/08 07:59:12;;;;;;;2.53;2.10;;;10.60;99.90;;;;;;5088107;28;20206;-85
2020/12/08 08:01:43;;;;;;;4.63;1.87;;;10.60;99.90;;;;;;5092763;28;20210;-85
2020/12/08 08:04:14;;;;;;;2.80;2.10;;;10.50;99.90;;;;;;5093703;28;20295;-84
2020/12/08 08:06:46;;;;;;;3.23;2.30;;;10.50;99.90;;;;;;5094329;28;20255;-85
2020/12/08 08:09:15;;;;;;;5.37;2.40;;;10.50;99.90;;;;;;5094268;28;20211;-84
2020/12/08 08:11:45;;;;;;;2.67;1.70;;;10.50;99.90;;;;;;5094607;28;20217;-84
2020/12/08 08:14:17;;;;;;;3.37;2.30;;;10.40;99.90;;;;;;5096737;28;20262;-84
2020/12/08 08:17:00;;;;;;;3.37;2.03;;;10.30;99.90;;;;;;5096086;28;20595;-84
2020/12/08 08:19:30;;;;;;;3.20;1.87;;;10.30;99.90;;;;;;5093855;28;20795;-84
2020/12/08 08:21:59;;;;;;;2.13;1.70;;;10.30;99.90;;;;;;5073858;28;20238;-84
2020/12/08 08:24:29;;;;;;;3.80;2.10;;;10.20;99.90;;;;;;5073974;28;20213;-84
2020/12/08 08:26:59;;;;;;;3.07;2.00;;;10.20;99.90;;;;;;5074201;28;20207;-83
2020/12/08 08:29:30;;;;;;;5.13;1.80;;;10.10;99.90;;;;;;5090303;28;20230;-84
2020/12/08 08:32:00;;;;;;;3.20;2.03;;;10.00;99.90;;;;;;5093140;28;20198;-84
2020/12/08 08:34:30;;;;;;;4.73;2.03;;;10.00;99.90;;;;;;5094742;28;20285;-84
2020/12/08 08:37:01;;;;;;;4.17;2.40;;;10.00;99.90;;;;;;5093887;28;20373;-84
2020/12/08 08:39:31;;;;;;;3.83;1.67;;;9.90;99.90;;;;;;5094052;28;20573;-83
2020/12/08 08:42:01;;;;;;;3.20;1.53;;;9.90;99.90;;;;;;5093829;28;20260;-84
2020/12/08 08:44:33;;;;;;;2.30;1.80;;;9.90;99.90;;;;;;5091568;28;20616;-84
2020/12/08 08:47:03;;;;;;;3.07;2.10;;;9.80;99.90;;;;;;5093688;28;20639;-85
2020/12/08 08:49:33;;;;;;;2.23;1.70;;;9.80;99.90;;;;;;5092875;28;20217;-85
2020/12/08 08:52:03;;;;;;;2.20;1.87;;;9.80;99.90;;;;;;5091453;28;20199;-84
2020/12/08 08:54:33;;;;;;;3.97;2.17;;;9.80;99.90;;;;;;5089130;28;20227;-83
2020/12/08 08:57:03;;;;;;;2.23;1.70;;;9.70;99.90;;;;;;5072103;28;20214;-82
2020/12/08 08:59:34;;;;;;;5.03;1.77;;;9.70;99.90;;;;;;5072169;28;20263;-83
2020/12/08 09:02:04;;;;;;;2.83;1.73;;;9.70;99.90;;;;;;5079744;28;20211;-85
2020/12/08 09:04:52;;;;;;;3.50;2.10;;;9.70;99.90;;;;;;5093234;28;20264;-85
2020/12/08 09:07:21;;;;;;;2.13;1.73;;;9.70;99.90;;;;;;5092681;28;20240;-85
2020/12/08 09:09:51;;;;;;;3.70;2.20;;;9.70;99.90;;;;;;5093623;28;20270;-84
2020/12/08 09:12:21;;;;;;;5.63;1.77;;;9.70;99.90;;;;;;5092399;28;20260;-85
2020/12/08 09:14:56;;;;;;;3.07;1.73;;;9.60;99.90;;;;;;5090956;28;20226;-84
2020/12/08 09:17:26;;;;;;;3.60;1.80;;;9.60;99.90;;;;;;5093018;28;20236;-85
2020/12/08 09:19:57;;;;;;;2.93;2.07;;;9.60;99.90;;;;;;5093134;28;20215;-85
2020/12/08 09:22:26;;;;;;;5.60;2.17;;;9.50;99.90;;;;;;5092397;28;20234;-85
2020/12/08 09:24:56;;;;;;;2.97;1.87;;;9.50;99.90;;;;;;5093399;28;20199;-85
2020/12/08 09:27:26;;;;;;;3.57;2.20;;;9.50;99.90;;;;;;5093262;28;20219;-85
2020/12/08 09:30:00;;;;;;;3.53;2.00;;;9.50;99.90;;;;;;5090675;28;20250;-85
2020/12/08 09:32:30;;;;;;;4.10;1.80;;;9.50;99.90;;;;;;5091677;28;20210;-86
2020/12/08 09:35:00;;;;;;;2.60;1.97;;;9.50;99.90;;;;;;5093443;28;20280;-84
2020/12/08 09:37:29;;;;;;;2.90;2.03;;;9.40;99.90;;;;;;5093132;28;20741;-85
2020/12/08 09:39:59;;;;;;;3.47;1.93;;;9.30;99.90;;;;;;5092629;28;20201;-85
2020/12/08 09:42:29;;;;;;;4.63;1.90;;;9.30;99.90;;;;;;5091363;28;20264;-83
2020/12/08 09:45:00;;;;;;;3.20;1.97;;;9.20;99.90;;;;;;5092448;28;20214;-83
2020/12/08 09:47:30;;;;;;;4.97;2.53;;;9.20;99.90;;;;;;5091506;28;20205;-84
2020/12/08 09:50:00;;;;;;;5.27;2.27;;;9.20;99.90;;;;;;5091669;28;20218;-83
2020/12/08 09:52:30;;;;;;;7.03;2.70;;;9.20;99.90;;;;;;5090104;28;20213;-84
2020/12/08 09:55:00;;;;;;;5.37;2.20;;;9.10;99.90;;;;;;5091685;28;20634;-84
2020/12/08 09:57:31;;;;;;;6.43;2.60;;;9.10;99.90;;;;;;5091709;28;20207;-83
2020/12/08 10:00:04;;;;;;;3.33;2.10;;;9.10;99.90;;;;;;5091795;28;20202;-84
2020/12/08 10:02:35;;;;;;;4.40;2.27;;;9.00;99.90;;;;;;5090499;28;20261;-84
2020/12/08 10:05:05;;;;;;;2.57;2.00;;;8.90;99.90;;;;;;5089742;28;20222;-84
2020/12/08 10:07:36;;;;;;;4.07;2.70;;;8.90;99.90;;;;;;5071302;28;20245;-83
2020/12/08 10:10:06;;;;;;;5.77;2.40;;;8.90;99.90;;;;;;5071472;28;20242;-84
2020/12/08 10:12:36;;;;;;;3.80;2.20;;;8.90;99.90;;;;;;5069807;28;20237;-83
2020/12/08 10:15:07;;;;;;;3.97;2.00;;;8.90;99.90;;;;;;5090283;28;20620;-83
2020/12/08 10:17:40;;;;;;;4.43;2.23;;;8.90;99.90;;;;;;5089401;28;20202;-83
2020/12/08 10:20:09;;;;;;;3.67;2.20;;;8.90;99.90;;;;;;5090957;28;20246;-83
2020/12/08 10:22:39;;;;;;;3.83;1.93;;;8.90;99.90;;;;;;5090128;28;20236;-82
2020/12/08 10:25:09;;;;;;;6.33;2.30;;;8.90;99.90;;;;;;5080913;28;20897;-85
2020/12/08 10:27:39;;;;;;;3.93;2.23;;;8.90;99.90;;;;;;5091665;28;20319;-84
2020/12/08 10:30:11;;;;;;;3.10;2.00;;;8.90;99.90;;;;;;5091778;28;20231;-86
2020/12/08 10:32:40;;;;;;;3.23;2.40;;;9.00;99.90;;;;;;5089670;28;20674;-84
2020/12/08 10:35:10;;;;;;;3.17;1.93;;;9.00;99.90;;;;;;5091555;28;20202;-84
2020/12/08 10:37:39;;;;;;;2.70;2.00;;;8.90;99.90;;;;;;5091560;28;20239;-84
2020/12/08 10:40:09;;;;;;;3.10;2.20;;;9.00;99.90;;;;;;5089429;28;20202;-84
2020/12/08 10:42:39;;;;;;;4.47;2.07;;;9.00;99.90;;;;;;5090302;28;20275;-85
2020/12/08 10:45:10;;;;;;;3.43;1.90;;;9.00;99.90;;;;;;5090732;28;20202;-84
2020/12/08 10:47:41;;;;;;;3.87;1.57;;;9.00;99.90;;;;;;5091545;28;20210;-84
2020/12/08 10:50:10;;;;;;;3.47;2.20;;;9.00;99.90;;;;;;5089971;28;20206;-85
2020/12/08 10:52:47;;;;;;;4.07;2.27;;;9.00;99.90;;;;;;5090449;28;20294;-84
2020/12/08 10:55:17;;;;;;;4.07;1.90;;;9.00;99.90;;;;;;5090804;28;20620;-84
2020/12/08 10:57:47;;;;;;;3.63;1.83;;;8.90;99.90;;;;;;5092222;28;20578;-84
2020/12/08 11:00:18;;;;;;;4.17;2.17;;;8.90;99.90;;;;;;5091018;28;20284;-84
2020/12/08 11:02:47;;;;;;;3.73;1.83;;;8.90;99.90;;;;;;5090095;28;20210;-84
2020/12/08 11:05:17;;;;;;;4.17;1.93;;;8.90;99.90;;;;;;5091362;28;20214;-83
2020/12/08 11:07:47;;;;;;;6.47;2.07;;;8.90;99.90;;;;;;5090421;28;20224;-85
2020/12/08 11:10:17;;;;;;;6.07;2.20;;;9.00;99.90;;;;;;5092054;28;20679;-85
2020/12/08 11:12:47;;;;;;;3.63;2.30;;;8.90;99.90;;;;;;5090452;28;20577;-85
2020/12/08 11:15:18;;;;;;;4.77;2.20;;;9.00;99.90;;;;;;5090919;28;20201;-84
2020/12/08 11:17:48;;;;;;;4.30;2.33;;;9.00;99.90;;;;;;5091097;28;20218;-84
2020/12/08 11:20:18;;;;;;;3.90;1.93;;;8.90;99.90;;;;;;5091234;28;20305;-84
2020/12/08 11:22:48;;;;;;;2.73;2.50;;;9.00;99.90;;;;;;5071103;28;20203;-85
2020/12/08 11:25:18;;;;;;;4.23;2.10;;;9.00;99.90;;;;;;5077709;28;20251;-84
2020/12/08 11:27:49;;;;;;;3.90;2.00;;;9.00;99.90;;;;;;5091418;28;20229;-84
2020/12/08 11:30:21;;;;;;;4.60;2.23;;;9.10;99.90;;;;;;5091575;28;20235;-85
2020/12/08 11:32:51;;;;;;;3.67;1.77;;;9.10;99.90;;;;;;5091480;28;20226;-84
2020/12/08 11:35:22;;;;;;;4.50;2.17;;;9.10;99.90;;;;;;5090910;28;20211;-86
2020/12/08 11:37:52;;;;;;;3.97;2.07;;;9.20;99.90;;;;;;5094609;28;20206;-86
2020/12/08 11:40:23;;;;;;;4.07;2.23;;;9.20;99.90;;;;;;5092379;28;20221;-85
2020/12/08 11:42:53;;;;;;;7.03;2.40;;;9.20;99.90;;;;;;5092580;28;20264;-86
2020/12/08 11:45:28;;;;;;;4.07;2.27;;;9.20;99.90;;;;;;5091975;28;20685;-84
2020/12/08 11:48:08;;;;;;;7.93;2.60;;;9.20;99.90;;;;;;5095823;28;20209;-84
2020/12/08 11:50:38;;;;;;;3.93;2.50;;;9.20;99.90;;;;;;5094055;28;20222;-84
2020/12/08 11:53:09;;;;;;;5.20;2.20;;;9.20;99.90;;;;;;5097158;28;20234;-83
2020/12/08 11:55:40;;;;;;;5.93;2.80;;;9.30;99.90;;;;;;5097710;28;20254;-83
2020/12/08 11:58:10;;;;;;;3.43;2.60;;;9.30;99.90;;;;;;5097174;28;20217;-84
2020/12/08 12:00:42;;;;;;;5.90;3.07;;;9.30;99.90;;;;;;5100635;28;20266;-84
2020/12/08 12:03:14;;;;;;;8.00;2.97;;;9.40;99.90;;;;;;5114482;28;20203;-83
2020/12/08 12:05:48;;;;;;;4.97;2.60;;;9.40;99.90;;;;;;5114012;28;20235;-84
2020/12/08 12:08:21;;;;;;;5.37;2.83;;;9.50;99.90;;;;;;5108304;28;20292;-84
2020/12/08 12:10:52;;;;;;;6.90;2.90;;;9.50;99.90;;;;;;5099499;28;20670;-84
2020/12/08 12:13:23;;;;;;;3.40;2.60;;;9.40;99.90;;;;;;5096857;28;20584;-84
2020/12/08 12:15:56;;;;;;;6.20;3.23;;;9.50;99.90;;;;;;5096908;28;20203;-84
2020/12/08 12:18:27;;;;;;;4.07;2.90;;;9.50;99.90;;;;;;5095351;28;20411;-83
2020/12/08 12:20:58;;;;;;;4.17;2.50;;;9.50;99.90;;;;;;5094607;28;20245;-84
2020/12/08 12:23:29;;;;;;;6.43;3.17;;;9.50;99.90;;;;;;5095066;28;20261;-85
2020/12/08 12:25:59;;;;;;;5.87;2.93;;;9.50;99.90;;;;;;5094552;28;20234;-84
2020/12/08 12:28:30;;;;;;;7.80;3.13;;;9.50;99.90;;;;;;5094924;28;20313;-85
2020/12/08 12:31:02;;;;;;;5.93;3.00;;;9.50;99.90;;;;;;5094497;28;20210;-84
2020/12/08 12:33:32;;;;;;;5.27;2.80;;;9.50;99.90;;;;;;5093340;28;20682;-85
2020/12/08 12:36:02;;;;;;;7.53;3.33;;;9.50;99.90;;;;;;5088945;28;20208;-85
2020/12/08 12:38:32;;;;;;;9.60;3.23;;;9.60;99.90;;;;;;5090848;28;20629;-84
2020/12/08 12:41:03;;;;;;;4.50;2.53;;;9.60;99.90;;;;;;5094457;28;20239;-84
2020/12/08 12:43:33;;;;;;;5.13;2.77;;;9.70;99.90;;;;;;5092958;28;20654;-84
2020/12/08 12:46:04;;;;;;;9.30;3.23;;;9.80;99.90;;;;;;5088843;28;20274;-85
2020/12/08 12:48:35;;;;;;;5.73;2.60;;;9.90;99.90;;;;;;5093292;28;20204;-84
2020/12/08 12:51:05;;;;;;;8.13;2.93;;;10.00;99.90;;;;;;5093779;28;20223;-84
2020/12/08 12:53:35;;;;;;;4.93;2.87;;;10.00;99.90;;;;;;5092406;28;20702;-84
2020/12/08 12:56:04;;;;;;;7.00;2.67;;;10.00;99.90;;;;;;5094284;28;20216;-85
2020/12/08 12:58:34;;;;;;;7.30;2.73;;;10.00;99.90;;;;;;5093601;28;20731;-85
2020/12/08 13:01:06;;;;;;;10.07;2.83;;;10.00;99.90;;;;;;5093815;28;20206;-85
2020/12/08 13:03:35;;;;;;;7.30;3.20;;;10.00;99.90;;;;;;5090706;28;20576;-85
2020/12/08 13:06:07;;;;;;;6.23;2.50;;;10.00;99.90;;;;;;5093563;28;20211;-84
2020/12/08 13:08:38;;;;;;;6.23;2.93;;;10.00;99.90;;;;;;5094041;28;20222;-86
2020/12/08 13:11:09;;;;;;;7.57;2.87;;;10.00;99.90;;;;;;5093468;28;20207;-86
2020/12/08 13:13:40;;;;;;;6.53;2.60;;;10.00;99.90;;;;;;5092110;28;20255;-85